Aktion National Airport


Codes: LGPZ/PVK
Name: Aktion National Airport
City: Preveza/Lefkada
Country: Greece
Elevation: 11 ft.
Wikipedia:

Photos at Aktion National Airport


   Photos courtesy of SpottingLog. You can add your own sightings and photos by signing up for a free trial today.



No photos found.

Weather at Aktion National Airport


Time (UTC)DescriptionTempratureWindCloud coverageVisibilityPressureHumidity
26-Jun-2024 00:00Clear Sky24°C4 mph, E1%10000m1011hPa75%
26-Jun-2024 03:00Clear Sky24°C4 mph, E4%10000m1011hPa69%
26-Jun-2024 06:00Clear Sky27°C4 mph, E3%10000m1012hPa53%
26-Jun-2024 09:00Clear Sky29°C7 mph, SW1%10000m1013hPa46%
26-Jun-2024 12:00Clear Sky29°C9 mph, SW4%10000m1012hPa54%
26-Jun-2024 15:00Clear Sky29°C9 mph, W1%10000m1011hPa54%
26-Jun-2024 18:00Clear Sky26°C4 mph, W0%10000m1012hPa69%
26-Jun-2024 21:00Clear Sky25°C2 mph, NE0%10000m1012hPa71%
27-Jun-2024 00:00Clear Sky24°C4 mph, NE0%10000m1011hPa67%
27-Jun-2024 03:00Clear Sky23°C4 mph, N0%10000m1011hPa64%
27-Jun-2024 06:00Clear Sky26°C2 mph, N0%10000m1011hPa55%
27-Jun-2024 09:00Clear Sky27°C7 mph, SW0%10000m1011hPa58%
27-Jun-2024 12:00Clear Sky28°C9 mph, W0%10000m1010hPa67%
27-Jun-2024 15:00Clear Sky27°C9 mph, W1%10000m1010hPa67%
27-Jun-2024 18:00Clear Sky24°C7 mph, W1%10000m1010hPa84%
27-Jun-2024 21:00Clear Sky24°C4 mph, W0%10000m1011hPa88%
28-Jun-2024 00:00Clear Sky23°C2 mph, NW0%10000m1010hPa91%
28-Jun-2024 03:00Clear Sky22°C4 mph, NW0%10000m1010hPa86%
28-Jun-2024 06:00Clear Sky25°C2 mph, NW0%10000m1011hPa68%
28-Jun-2024 09:00Clear Sky26°C9 mph, W0%10000m1011hPa65%
28-Jun-2024 12:00Clear Sky28°C11 mph, W0%10000m1010hPa61%
28-Jun-2024 15:00Clear Sky27°C11 mph, W2%10000m1009hPa66%
28-Jun-2024 18:00Clear Sky25°C4 mph, W1%10000m1010hPa83%
28-Jun-2024 21:00Few Clouds25°C2 mph, NE19%10000m1011hPa79%
29-Jun-2024 00:00Few Clouds25°C7 mph, E16%10000m1011hPa65%
29-Jun-2024 03:00Clear Sky24°C7 mph, NE1%10000m1012hPa65%
29-Jun-2024 06:00Clear Sky27°C7 mph, NE1%10000m1013hPa52%
29-Jun-2024 09:00Clear Sky29°C2 mph, W0%10000m1012hPa47%
29-Jun-2024 12:00Clear Sky30°C16 mph, NW0%10000m1012hPa53%
29-Jun-2024 15:00Clear Sky29°C11 mph, NW0%10000m1011hPa57%
29-Jun-2024 18:00Clear Sky26°C4 mph, W0%10000m1012hPa71%
29-Jun-2024 21:00Clear Sky26°C4 mph, NE0%10000m1013hPa69%
30-Jun-2024 00:00Clear Sky26°C7 mph, E0%10000m1012hPa56%
30-Jun-2024 03:00Clear Sky25°C7 mph, E0%10000m1012hPa55%
30-Jun-2024 06:00Clear Sky28°C7 mph, NE0%10000m1013hPa45%
30-Jun-2024 09:00Clear Sky31°C2 mph, W0%10000m1012hPa42%
30-Jun-2024 12:00Clear Sky30°C11 mph, W0%10000m1011hPa47%
30-Jun-2024 15:00Clear Sky29°C11 mph, NW0%10000m1010hPa55%
30-Jun-2024 18:00Clear Sky26°C7 mph, SW0%10000m1010hPa73%
30-Jun-2024 21:00Clear Sky25°C2 mph, N0%10000m1012hPa74%